sensor_id;sensor_type;location;lat;lon;timestamp;pressure;altitude;pressure_sealevel;temperature;humidity
23433;BME280;41331;45.412;10.992;2023-02-04T00:00:24;101283.63;;;3.01;100.00
23433;BME280;41331;45.412;10.992;2023-02-04T00:02:52;101285.41;;;3.17;100.00
23433;BME280;41331;45.412;10.992;2023-02-04T00:05:20;101304.22;;;3.17;100.00
23433;BME280;41331;45.412;10.992;2023-02-04T00:07:48;101292.03;;;3.42;100.00
23433;BME280;41331;45.412;10.992;2023-02-04T00:10:15;101302.97;;;3.30;100.00
23433;BME280;41331;45.412;10.992;2023-02-04T00:12:42;101283.63;;;3.33;100.00
23433;BME280;41331;45.412;10.992;2023-02-04T00:15:10;101291.47;;;3.40;100.00
23433;BME280;41331;45.412;10.992;2023-02-04T00:17:37;101289.34;;;3.42;100.00
23433;BME280;41331;45.412;10.992;2023-02-04T00:20:05;101281.97;;;3.27;100.00
23433;BME280;41331;45.412;10.992;2023-02-04T00:22:33;101268.28;;;3.33;100.00
23433;BME280;41331;45.412;10.992;2023-02-04T00:25:00;101290.41;;;3.46;100.00
23433;BME280;41331;45.412;10.992;2023-02-04T00:27:28;101287.88;;;3.29;100.00
23433;BME280;41331;45.412;10.992;2023-02-04T00:29:55;101317.09;;;3.15;100.00
23433;BME280;41331;45.412;10.992;2023-02-04T00:32:23;101317.91;;;3.16;100.00
23433;BME280;41331;45.412;10.992;2023-02-04T00:34:53;101301.81;;;3.21;100.00
23433;BME280;41331;45.412;10.992;2023-02-04T00:37:21;101305.31;;;3.21;100.00
23433;BME280;41331;45.412;10.992;2023-02-04T00:39:48;101311.75;;;3.20;100.00
23433;BME280;41331;45.412;10.992;2023-02-04T00:42:17;101316.38;;;3.25;100.00
23433;BME280;41331;45.412;10.992;2023-02-04T00:44:44;101309.91;;;3.26;100.00
23433;BME280;41331;45.412;10.992;2023-02-04T00:47:11;101306.34;;;3.15;100.00
23433;BME280;41331;45.412;10.992;2023-02-04T00:49:39;101300.03;;;3.31;100.00
23433;BME280;41331;45.412;10.992;2023-02-04T00:52:06;101293.00;;;3.30;100.00
23433;BME280;41331;45.412;10.992;2023-02-04T00:54:34;101280.28;;;3.21;100.00
23433;BME280;41331;45.412;10.992;2023-02-04T00:57:01;101285.47;;;3.27;100.00
23433;BME280;41331;45.412;10.992;2023-02-04T00:59:30;101287.88;;;3.29;100.00
23433;BME280;41331;45.412;10.992;2023-02-04T01:01:57;101280.06;;;3.22;100.00
23433;BME280;41331;45.412;10.992;2023-02-04T01:04:25;101287.00;;;3.18;100.00
23433;BME280;41331;45.412;10.992;2023-02-04T01:06:54;101287.50;;;3.15;100.00
23433;BME280;41331;45.412;10.992;2023-02-04T01:09:21;101272.97;;;3.11;100.00
23433;BME280;41331;45.412;10.992;2023-02-04T01:11:49;101282.03;;;3.00;100.00
23433;BME280;41331;45.412;10.992;2023-02-04T01:14:18;101282.38;;;3.08;100.00
23433;BME280;41331;45.412;10.992;2023-02-04T01:16:46;101288.84;;;3.13;100.00
23433;BME280;41331;45.412;10.992;2023-02-04T01:19:13;101281.03;;;3.11;100.00
23433;BME280;41331;45.412;10.992;2023-02-04T01:21:41;101282.31;;;3.03;100.00
23433;BME280;41331;45.412;10.992;2023-02-04T01:24:10;101271.13;;;3.17;100.00
23433;BME280;41331;45.412;10.992;2023-02-04T01:27:02;101261.84;;;3.40;100.00
23433;BME280;41331;45.412;10.992;2023-02-04T01:29:31;101268.00;;;3.35;100.00
23433;BME280;41331;45.412;10.992;2023-02-04T01:31:58;101262.31;;;3.26;100.00
23433;BME280;41331;45.412;10.992;2023-02-04T01:34:26;101263.06;;;3.17;100.00
23433;BME280;41331;45.412;10.992;2023-02-04T01:36:53;101263.28;;;3.10;100.00
23433;BME280;41331;45.412;10.992;2023-02-04T01:39:20;101279.38;;;3.05;100.00
23433;BME280;41331;45.412;10.992;2023-02-04T01:41:48;101298.97;;;3.00;100.00
23433;BME280;41331;45.412;10.992;2023-02-04T01:44:15;101291.69;;;3.01;100.00
23433;BME280;41331;45.412;10.992;2023-02-04T01:46:43;101289.81;;;2.96;100.00
23433;BME280;41331;45.412;10.992;2023-02-04T01:49:10;101280.38;;;2.94;100.00
23433;BME280;41331;45.412;10.992;2023-02-04T01:51:38;101285.47;;;2.95;100.00
23433;BME280;41331;45.412;10.992;2023-02-04T01:54:09;101290.03;;;2.95;100.00
23433;BME280;41331;45.412;10.992;2023-02-04T01:56:38;101289.19;;;2.89;100.00
23433;BME280;41331;45.412;10.992;2023-02-04T01:59:14;101274.47;;;2.97;100.00
23433;BME280;41331;45.412;10.992;2023-02-04T02:01:47;101272.34;;;2.99;100.00
23433;BME280;41331;45.412;10.992;2023-02-04T02:04:23;101278.22;;;2.96;100.00
23433;BME280;41331;45.412;10.992;2023-02-04T02:06:56;101277.03;;;2.81;100.00
23433;BME280;41331;45.412;10.992;2023-02-04T02:09:25;101258.16;;;2.71;100.00
23433;BME280;41331;45.412;10.992;2023-02-04T02:11:53;101270.50;;;2.72;100.00
23433;BME280;41331;45.412;10.992;2023-02-04T02:14:21;101264.09;;;2.78;100.00
23433;BME280;41331;45.412;10.992;2023-02-04T02:16:49;101269.31;;;2.58;100.00
23433;BME280;41331;45.412;10.992;2023-02-04T02:19:26;101258.78;;;2.51;100.00
23433;BME280;41331;45.412;10.992;2023-02-04T02:22:02;101246.84;;;2.42;100.00
23433;BME280;41331;45.412;10.992;2023-02-04T02:24:33;101255.78;;;2.48;100.00
23433;BME280;41331;45.412;10.992;2023-02-04T02:27:04;101240.50;;;2.53;100.00
23433;BME280;41331;45.412;10.992;2023-02-04T02:29:34;101238.94;;;2.57;100.00
23433;BME280;41331;45.412;10.992;2023-02-04T02:32:02;101229.75;;;2.53;100.00
23433;BME280;41331;45.412;10.992;2023-02-04T02:34:29;101227.81;;;2.49;100.00
23433;BME280;41331;45.412;10.992;2023-02-04T02:36:58;101213.31;;;2.50;100.00
23433;BME280;41331;45.412;10.992;2023-02-04T02:39:26;101215.47;;;2.48;100.00
23433;BME280;41331;45.412;10.992;2023-02-04T02:41:55;101222.53;;;2.59;100.00
23433;BME280;41331;45.412;10.992;2023-02-04T02:44:24;101223.63;;;2.58;100.00
23433;BME280;41331;45.412;10.992;2023-02-04T02:46:53;101204.81;;;2.58;100.00
23433;BME280;41331;45.412;10.992;2023-02-04T02:49:21;101217.66;;;2.56;100.00
23433;BME280;41331;45.412;10.992;2023-02-04T02:51:48;101213.66;;;2.58;100.00
23433;BME280;41331;45.412;10.992;2023-02-04T02:54:42;101215.84;;;2.62;100.00
23433;BME280;41331;45.412;10.992;2023-02-04T02:57:19;101230.06;;;2.57;100.00
23433;BME280;41331;45.412;10.992;2023-02-04T02:59:46;101229.28;;;2.62;100.00
23433;BME280;41331;45.412;10.992;2023-02-04T03:02:18;101225.00;;;2.66;100.00
23433;BME280;41331;45.412;10.992;2023-02-04T03:04:53;101215.69;;;2.73;100.00
23433;BME280;41331;45.412;10.992;2023-02-04T03:07:26;101223.25;;;2.76;100.00
23433;BME280;41331;45.412;10.992;2023-02-04T03:09:53;101222.41;;;2.76;100.00
23433;BME280;41331;45.412;10.992;2023-02-04T03:12:21;101219.66;;;2.71;100.00
23433;BME280;41331;45.412;10.992;2023-02-04T03:14:48;101195.13;;;2.94;100.00
23433;BME280;41331;45.412;10.992;2023-02-04T03:17:16;101215.25;;;2.87;100.00
23433;BME280;41331;45.412;10.992;2023-02-04T03:19:45;101222.72;;;2.79;100.00
23433;BME280;41331;45.412;10.992;2023-02-04T03:22:13;101209.00;;;2.81;100.00
23433;BME280;41331;45.412;10.992;2023-02-04T03:24:41;101212.25;;;2.83;100.00
23433;BME280;41331;45.412;10.992;2023-02-04T03:27:09;101221.84;;;2.74;100.00
23433;BME280;41331;45.412;10.992;2023-02-04T03:29:42;101214.28;;;2.71;100.00
23433;BME280;41331;45.412;10.992;2023-02-04T03:32:10;101210.75;;;2.65;100.00
23433;BME280;41331;45.412;10.992;2023-02-04T03:34:37;101203.66;;;2.86;100.00
23433;BME280;41331;45.412;10.992;2023-02-04T03:37:05;101180.97;;;2.67;100.00
23433;BME280;41331;45.412;10.992;2023-02-04T03:39:32;101197.78;;;2.52;100.00
23433;BME280;41331;45.412;10.992;2023-02-04T03:41:59;101203.88;;;2.42;100.00
23433;BME280;41331;45.412;10.992;2023-02-04T03:44:27;101194.19;;;2.41;100.00
23433;BME280;41331;45.412;10.992;2023-02-04T03:46:55;101187.38;;;2.33;100.00
23433;BME280;41331;45.412;10.992;2023-02-04T03:49:23;101187.69;;;2.37;100.00
23433;BME280;41331;45.412;10.992;2023-02-04T03:51:50;101179.72;;;2.47;100.00
23433;BME280;41331;45.412;10.992;2023-02-04T03:54:18;101178.66;;;2.48;100.00
23433;BME280;41331;45.412;10.992;2023-02-04T03:56:45;101195.53;;;2.44;100.00
23433;BME280;41331;45.412;10.992;2023-02-04T03:59:13;101200.88;;;2.39;100.00
23433;BME280;41331;45.412;10.992;2023-02-04T04:01:40;101192.84;;;2.44;100.00
23433;BME280;41331;45.412;10.992;2023-02-04T04:04:07;101197.69;;;2.42;100.00
23433;BME280;41331;45.412;10.992;2023-02-04T04:06:35;101211.31;;;2.35;100.00
23433;BME280;41331;45.412;10.992;2023-02-04T04:09:02;101209.38;;;2.57;100.00
23433;BME280;41331;45.412;10.992;2023-02-04T04:11:31;101212.00;;;2.52;100.00
23433;BME280;41331;45.412;10.992;2023-02-04T04:13:58;101216.28;;;2.48;100.00
23433;BME280;41331;45.412;10.992;2023-02-04T04:16:27;101211.16;;;2.47;100.00
23433;BME280;41331;45.412;10.992;2023-02-04T04:18:55;101222.94;;;2.46;100.00
23433;BME280;41331;45.412;10.992;2023-02-04T04:21:25;101225.91;;;2.44;100.00
23433;BME280;41331;45.412;10.992;2023-02-04T04:23:53;101222.34;;;2.39;100.00
23433;BME280;41331;45.412;10.992;2023-02-04T04:26:20;101217.44;;;2.30;100.00
23433;BME280;41331;45.412;10.992;2023-02-04T04:28:47;101223.34;;;2.27;100.00
23433;BME280;41331;45.412;10.992;2023-02-04T04:31:15;101219.56;;;2.28;100.00
23433;BME280;41331;45.412;10.992;2023-02-04T04:33:42;101216.56;;;2.25;100.00
23433;BME280;41331;45.412;10.992;2023-02-04T04:36:10;101213.84;;;2.20;100.00
23433;BME280;41331;45.412;10.992;2023-02-04T04:38:38;101216.41;;;2.10;100.00
23433;BME280;41331;45.412;10.992;2023-02-04T04:41:05;101206.25;;;2.12;100.00
23433;BME280;41331;45.412;10.992;2023-02-04T04:43:32;101198.44;;;2.10;100.00
23433;BME280;41331;45.412;10.992;2023-02-04T04:46:00;101201.53;;;2.24;100.00
23433;BME280;41331;45.412;10.992;2023-02-04T04:48:27;101195.00;;;2.42;100.00
23433;BME280;41331;45.412;10.992;2023-02-04T04:50:54;101172.06;;;2.34;100.00
23433;BME280;41331;45.412;10.992;2023-02-04T04:53:22;101171.41;;;2.17;100.00
23433;BME280;41331;45.412;10.992;2023-02-04T04:55:49;101164.75;;;1.97;100.00
23433;BME280;41331;45.412;10.992;2023-02-04T04:58:17;101160.94;;;1.93;100.00
23433;BME280;41331;45.412;10.992;2023-02-04T05:00:44;101161.25;;;1.97;100.00
23433;BME280;41331;45.412;10.992;2023-02-04T05:03:11;101169.31;;;1.97;100.00
23433;BME280;41331;45.412;10.992;2023-02-04T05:05:39;101175.84;;;2.06;100.00
23433;BME280;41331;45.412;10.992;2023-02-04T05:08:07;101185.75;;;2.05;100.00
23433;BME280;41331;45.412;10.992;2023-02-04T05:10:40;101196.28;;;2.07;100.00
23433;BME280;41331;45.412;10.992;2023-02-04T05:13:08;101190.03;;;2.28;100.00
23433;BME280;41331;45.412;10.992;2023-02-04T05:15:35;101198.63;;;2.30;100.00
23433;BME280;41331;45.412;10.992;2023-02-04T05:18:03;101208.78;;;2.23;100.00
23433;BME280;41331;45.412;10.992;2023-02-04T05:20:30;101197.72;;;2.20;100.00
23433;BME280;41331;45.412;10.992;2023-02-04T05:22:58;101206.31;;;2.17;100.00
23433;BME280;41331;45.412;10.992;2023-02-04T05:25:27;101232.91;;;2.18;100.00
23433;BME280;41331;45.412;10.992;2023-02-04T05:27:55;101235.03;;;2.16;100.00
23433;BME280;41331;45.412;10.992;2023-02-04T05:30:22;101230.72;;;2.15;100.00
23433;BME280;41331;45.412;10.992;2023-02-04T05:32:49;101235.00;;;2.11;100.00
23433;BME280;41331;45.412;10.992;2023-02-04T05:35:17;101235.47;;;2.08;100.00
23433;BME280;41331;45.412;10.992;2023-02-04T05:37:44;101224.94;;;2.01;100.00
23433;BME280;41331;45.412;10.992;2023-02-04T05:40:12;101225.53;;;2.08;100.00
23433;BME280;41331;45.412;10.992;2023-02-04T05:42:40;101228.22;;;2.36;100.00
23433;BME280;41331;45.412;10.992;2023-02-04T05:45:13;101206.09;;;2.23;100.00
23433;BME280;41331;45.412;10.992;2023-02-04T05:47:41;101214.09;;;2.18;100.00
23433;BME280;41331;45.412;10.992;2023-02-04T05:50:09;101227.84;;;2.00;100.00
23433;BME280;41331;45.412;10.992;2023-02-04T05:52:37;101229.69;;;1.94;100.00
23433;BME280;41331;45.412;10.992;2023-02-04T05:55:05;101240.09;;;1.91;100.00
23433;BME280;41331;45.412;10.992;2023-02-04T05:57:33;101234.72;;;1.91;100.00
23433;BME280;41331;45.412;10.992;2023-02-04T06:00:00;101236.00;;;1.83;100.00
23433;BME280;41331;45.412;10.992;2023-02-04T06:02:38;101255.41;;;1.90;100.00
23433;BME280;41331;45.412;10.992;2023-02-04T06:05:05;101239.94;;;1.97;100.00
23433;BME280;41331;45.412;10.992;2023-02-04T06:07:33;101245.84;;;1.99;100.00
23433;BME280;41331;45.412;10.992;2023-02-04T06:10:00;101258.19;;;2.00;100.00
23433;BME280;41331;45.412;10.992;2023-02-04T06:12:28;101250.66;;;1.97;100.00
23433;BME280;41331;45.412;10.992;2023-02-04T06:14:55;101248.53;;;1.99;100.00
23433;BME280;41331;45.412;10.992;2023-02-04T06:17:22;101253.66;;;2.01;100.00
23433;BME280;41331;45.412;10.992;2023-02-04T06:19:50;101259.50;;;2.20;100.00
23433;BME280;41331;45.412;10.992;2023-02-04T06:22:17;101267.44;;;2.31;100.00
23433;BME280;41331;45.412;10.992;2023-02-04T06:24:44;101274.91;;;2.29;100.00
23433;BME280;41331;45.412;10.992;2023-02-04T06:27:16;101275.22;;;2.06;100.00
23433;BME280;41331;45.412;10.992;2023-02-04T06:29:51;101279.28;;;1.87;100.00
23433;BME280;41331;45.412;10.992;2023-02-04T06:32:20;101283.00;;;1.86;100.00
23433;BME280;41331;45.412;10.992;2023-02-04T06:34:48;101277.91;;;2.06;100.00
23433;BME280;41331;45.412;10.992;2023-02-04T06:37:15;101278.19;;;2.10;100.00
23433;BME280;41331;45.412;10.992;2023-02-04T06:39:43;101284.06;;;2.06;100.00
23433;BME280;41331;45.412;10.992;2023-02-04T06:42:10;101287.69;;;1.95;100.00
23433;BME280;41331;45.412;10.992;2023-02-04T06:44:39;101308.34;;;1.95;100.00
23433;BME280;41331;45.412;10.992;2023-02-04T06:47:07;101323.84;;;1.88;100.00
23433;BME280;41331;45.412;10.992;2023-02-04T06:49:34;101308.47;;;2.05;100.00
23433;BME280;41331;45.412;10.992;2023-02-04T06:52:01;101325.53;;;2.16;100.00
23433;BME280;41331;45.412;10.992;2023-02-04T06:54:29;101324.66;;;2.10;100.00
23433;BME280;41331;45.412;10.992;2023-02-04T06:56:56;101312.22;;;2.26;100.00
23433;BME280;41331;45.412;10.992;2023-02-04T06:59:29;101320.72;;;2.18;100.00
23433;BME280;41331;45.412;10.992;2023-02-04T07:01:59;101326.59;;;2.15;100.00
23433;BME280;41331;45.412;10.992;2023-02-04T07:04:26;101320.78;;;2.23;100.00
23433;BME280;41331;45.412;10.992;2023-02-04T07:06:53;101324.50;;;2.44;100.00
23433;BME280;41331;45.412;10.992;2023-02-04T07:09:23;101332.38;;;2.77;100.00
23433;BME280;41331;45.412;10.992;2023-02-04T07:11:51;101338.03;;;2.81;100.00
23433;BME280;41331;45.412;10.992;2023-02-04T07:14:18;101334.72;;;3.01;100.00
23433;BME280;41331;45.412;10.992;2023-02-04T07:16:46;101322.44;;;3.10;100.00
23433;BME280;41331;45.412;10.992;2023-02-04T07:19:13;101328.19;;;3.61;100.00
23433;BME280;41331;45.412;10.992;2023-02-04T07:21:41;101318.53;;;3.65;100.00
23433;BME280;41331;45.412;10.992;2023-02-04T07:24:08;101333.09;;;3.69;100.00
23433;BME280;41331;45.412;10.992;2023-02-04T07:26:35;101339.25;;;3.64;100.00
23433;BME280;41331;45.412;10.992;2023-02-04T07:29:03;101349.94;;;3.92;100.00
23433;BME280;41331;45.412;10.992;2023-02-04T07:31:33;101349.50;;;4.20;100.00
23433;BME280;41331;45.412;10.992;2023-02-04T07:34:00;101345.19;;;4.19;100.00
23433;BME280;41331;45.412;10.992;2023-02-04T07:36:27;101349.94;;;4.64;100.00
23433;BME280;41331;45.412;10.992;2023-02-04T07:38:55;101355.66;;;5.14;100.00
23433;BME280;41331;45.412;10.992;2023-02-04T07:41:22;101359.97;;;5.45;96.46
23433;BME280;41331;45.412;10.992;2023-02-04T07:43:50;101352.94;;;5.65;96.27
23433;BME280;41331;45.412;10.992;2023-02-04T07:46:17;101356.47;;;5.30;97.04
23433;BME280;41331;45.412;10.992;2023-02-04T07:48:44;101348.91;;;5.42;96.16
23433;BME280;41331;45.412;10.992;2023-02-04T07:51:12;101358.34;;;5.50;95.87
23433;BME280;41331;45.412;10.992;2023-02-04T07:53:39;101362.91;;;5.80;95.28
23433;BME280;41331;45.412;10.992;2023-02-04T07:56:06;101355.31;;;5.87;94.10
23433;BME280;41331;45.412;10.992;2023-02-04T07:58:34;101346.09;;;6.13;93.55
23433;BME280;41331;45.412;10.992;2023-02-04T08:01:01;101337.88;;;6.39;92.30
23433;BME280;41331;45.412;10.992;2023-02-04T08:03:29;101342.28;;;6.69;89.69
23433;BME280;41331;45.412;10.992;2023-02-04T08:05:56;101353.38;;;6.67;89.62
23433;BME280;41331;45.412;10.992;2023-02-04T08:08:23;101356.53;;;6.35;92.12
23433;BME280;41331;45.412;10.992;2023-02-04T08:10:51;101364.00;;;6.59;90.20
23433;BME280;41331;45.412;10.992;2023-02-04T08:13:18;101357.59;;;6.89;90.21
23433;BME280;41331;45.412;10.992;2023-02-04T08:15:45;101370.88;;;7.24;88.35
23433;BME280;41331;45.412;10.992;2023-02-04T08:18:13;101376.28;;;7.24;87.31
23433;BME280;41331;45.412;10.992;2023-02-04T08:20:40;101373.13;;;7.46;87.19
23433;BME280;41331;45.412;10.992;2023-02-04T08:23:08;101369.47;;;7.27;86.53
23433;BME280;41331;45.412;10.992;2023-02-04T08:25:36;101365.84;;;7.71;86.21
23433;BME280;41331;45.412;10.992;2023-02-04T08:28:03;101366.56;;;8.29;83.05
23433;BME280;41331;45.412;10.992;2023-02-04T08:30:31;101381.81;;;8.49;82.14
23433;BME280;41331;45.412;10.992;2023-02-04T08:32:59;101374.28;;;8.84;79.71
23433;BME280;41331;45.412;10.992;2023-02-04T08:35:26;101368.25;;;9.06;78.19
23433;BME280;41331;45.412;10.992;2023-02-04T08:37:53;101361.72;;;10.13;74.81
23433;BME280;41331;45.412;10.992;2023-02-04T08:40:21;101366.09;;;10.78;71.99
23433;BME280;41331;45.412;10.992;2023-02-04T08:42:48;101346.88;;;11.42;68.31
23433;BME280;41331;45.412;10.992;2023-02-04T08:45:16;101368.56;;;10.88;69.40
23433;BME280;41331;45.412;10.992;2023-02-04T08:47:44;101361.13;;;10.03;72.04
23433;BME280;41331;45.412;10.992;2023-02-04T08:50:11;101364.50;;;9.67;73.47
23433;BME280;41331;45.412;10.992;2023-02-04T08:52:39;101384.94;;;9.65;75.19
23433;BME280;41331;45.412;10.992;2023-02-04T08:55:07;101384.06;;;9.37;77.82
23433;BME280;41331;45.412;10.992;2023-02-04T08:57:34;101371.03;;;9.01;78.89
23433;BME280;41331;45.412;10.992;2023-02-04T09:00:02;101374.47;;;9.06;79.66
23433;BME280;41331;45.412;10.992;2023-02-04T09:02:30;101371.22;;;9.23;77.71
23433;BME280;41331;45.412;10.992;2023-02-04T09:04:57;101376.97;;;9.68;76.62
23433;BME280;41331;45.412;10.992;2023-02-04T09:07:25;101381.75;;;10.04;75.27
23433;BME280;41331;45.412;10.992;2023-02-04T09:09:52;101372.41;;;10.10;73.88
23433;BME280;41331;45.412;10.992;2023-02-04T09:12:19;101368.41;;;10.85;72.95
23433;BME280;41331;45.412;10.992;2023-02-04T09:14:47;101358.31;;;11.53;70.93
23433;BME280;41331;45.412;10.992;2023-02-04T09:17:14;101346.78;;;12.27;66.30
23433;BME280;41331;45.412;10.992;2023-02-04T09:19:41;101363.38;;;12.74;62.91
23433;BME280;41331;45.412;10.992;2023-02-04T09:22:09;101395.22;;;13.04;62.71
23433;BME280;41331;45.412;10.992;2023-02-04T09:24:37;101389.91;;;12.99;61.57
23433;BME280;41331;45.412;10.992;2023-02-04T09:27:05;101385.44;;;13.12;63.59
23433;BME280;41331;45.412;10.992;2023-02-04T09:29:32;101390.56;;;13.48;60.44
23433;BME280;41331;45.412;10.992;2023-02-04T09:32:00;101385.19;;;13.69;59.30
23433;BME280;41331;45.412;10.992;2023-02-04T09:34:27;101395.06;;;13.35;60.57
23433;BME280;41331;45.412;10.992;2023-02-04T09:36:54;101398.06;;;13.77;60.22
23433;BME280;41331;45.412;10.992;2023-02-04T09:39:22;101385.38;;;14.49;58.36
23433;BME280;41331;45.412;10.992;2023-02-04T09:41:49;101384.31;;;14.33;58.50
23433;BME280;41331;45.412;10.992;2023-02-04T09:44:21;101403.16;;;14.25;59.34
23433;BME280;41331;45.412;10.992;2023-02-04T09:46:53;101403.94;;;14.35;59.31
23433;BME280;41331;45.412;10.992;2023-02-04T09:49:22;101389.41;;;14.52;59.36
23433;BME280;41331;45.412;10.992;2023-02-04T09:51:50;101399.16;;;14.23;60.08
23433;BME280;41331;45.412;10.992;2023-02-04T09:54:21;101403.53;;;14.15;60.97
23433;BME280;41331;45.412;10.992;2023-02-04T09:56:51;101398.97;;;14.28;60.38
23433;BME280;41331;45.412;10.992;2023-02-04T09:59:25;101404.22;;;13.05;65.95
23433;BME280;41331;45.412;10.992;2023-02-04T10:01:59;101397.34;;;13.25;65.57
23433;BME280;41331;45.412;10.992;2023-02-04T10:04:27;101415.44;;;12.11;70.00
23433;BME280;41331;45.412;10.992;2023-02-04T10:06:55;101425.97;;;11.96;71.81
23433;BME280;41331;45.412;10.992;2023-02-04T10:09:26;101415.09;;;12.53;70.78
23433;BME280;41331;45.412;10.992;2023-02-04T10:11:53;101399.59;;;12.22;72.46
23433;BME280;41331;45.412;10.992;2023-02-04T10:14:22;101421.88;;;12.24;73.34
23433;BME280;41331;45.412;10.992;2023-02-04T10:16:55;101428.69;;;12.35;71.85
23433;BME280;41331;45.412;10.992;2023-02-04T10:19:27;101432.78;;;11.84;74.24
23433;BME280;41331;45.412;10.992;2023-02-04T10:21:55;101427.38;;;12.33;72.53
23433;BME280;41331;45.412;10.992;2023-02-04T10:24:24;101436.31;;;12.56;72.74
23433;BME280;41331;45.412;10.992;2023-02-04T10:27:10;101406.41;;;12.51;72.28
23433;BME280;41331;45.412;10.992;2023-02-04T10:29:38;101414.91;;;12.01;74.75
23433;BME280;41331;45.412;10.992;2023-02-04T10:32:25;101433.19;;;12.31;72.67
23433;BME280;41331;45.412;10.992;2023-02-04T10:34:57;101430.78;;;11.99;74.33
23433;BME280;41331;45.412;10.992;2023-02-04T10:37:25;101427.50;;;11.88;75.11
23433;BME280;41331;45.412;10.992;2023-02-04T10:39:52;101416.28;;;11.67;76.03
23433;BME280;41331;45.412;10.992;2023-02-04T10:42:22;101423.88;;;11.70;76.01
23433;BME280;41331;45.412;10.992;2023-02-04T10:44:51;101425.53;;;11.80;76.96
23433;BME280;41331;45.412;10.992;2023-02-04T10:47:21;101414.88;;;12.32;73.48
23433;BME280;41331;45.412;10.992;2023-02-04T10:52:29;101417.16;;;11.54;77.73
23433;BME280;41331;45.412;10.992;2023-02-04T10:55:02;101413.16;;;11.51;77.92
23433;BME280;41331;45.412;10.992;2023-02-04T10:57:31;101395.28;;;11.67;77.03
23433;BME280;41331;45.412;10.992;2023-02-04T11:00:06;101390.00;;;11.40;78.38
23433;BME280;41331;45.412;10.992;2023-02-04T11:05:35;101396.94;;;11.77;78.11
23433;BME280;41331;45.412;10.992;2023-02-04T11:13:40;101378.66;;;11.78;77.91
23433;BME280;41331;45.412;10.992;2023-02-04T11:18:50;101372.34;;;11.91;77.33
23433;BME280;41331;45.412;10.992;2023-02-04T11:24:21;101364.28;;;12.26;74.31
23433;BME280;41331;45.412;10.992;2023-02-04T11:26:52;101373.13;;;11.91;76.98
23433;BME280;41331;45.412;10.992;2023-02-04T11:29:31;101375.25;;;12.03;77.59
23433;BME280;41331;45.412;10.992;2023-02-04T11:35:26;101385.50;;;11.98;76.47
23433;BME280;41331;45.412;10.992;2023-02-04T11:37:55;101388.19;;;12.29;75.27
23433;BME280;41331;45.412;10.992;2023-02-04T11:40:27;101390.63;;;12.39;74.92
23433;BME280;41331;45.412;10.992;2023-02-04T11:43:09;101378.59;;;12.31;75.78
23433;BME280;41331;45.412;10.992;2023-02-04T11:45:39;101371.22;;;12.40;75.15
23433;BME280;41331;45.412;10.992;2023-02-04T11:48:19;101380.66;;;12.26;76.19
23433;BME280;41331;45.412;10.992;2023-02-04T11:50:55;101367.81;;;12.26;75.33
23433;BME280;41331;45.412;10.992;2023-02-04T11:53:27;101363.28;;;12.22;74.05
23433;BME280;41331;45.412;10.992;2023-02-04T11:55:54;101362.34;;;12.26;76.23
23433;BME280;41331;45.412;10.992;2023-02-04T11:58:22;101356.25;;;12.38;76.10
23433;BME280;41331;45.412;10.992;2023-02-04T12:00:52;101361.91;;;12.41;75.02
23433;BME280;41331;45.412;10.992;2023-02-04T12:03:25;101375.53;;;12.33;73.10
23433;BME280;41331;45.412;10.992;2023-02-04T12:05:53;101370.19;;;12.19;75.11
23433;BME280;41331;45.412;10.992;2023-02-04T12:10:58;101374.44;;;12.60;75.34
23433;BME280;41331;45.412;10.992;2023-02-04T12:13:26;101390.03;;;12.59;75.32
23433;BME280;41331;45.412;10.992;2023-02-04T12:16:02;101364.84;;;12.88;73.51
23433;BME280;41331;45.412;10.992;2023-02-04T12:18:31;101359.72;;;12.95;72.37
23433;BME280;41331;45.412;10.992;2023-02-04T12:21:01;101369.81;;;12.95;71.54
23433;BME280;41331;45.412;10.992;2023-02-04T12:23:30;101353.13;;;12.96;70.83
23433;BME280;41331;45.412;10.992;2023-02-04T12:25:58;101348.63;;;13.01;68.60
23433;BME280;41331;45.412;10.992;2023-02-04T12:28:26;101344.59;;;13.24;68.51
23433;BME280;41331;45.412;10.992;2023-02-04T12:30:56;101341.22;;;13.27;68.01
23433;BME280;41331;45.412;10.992;2023-02-04T12:33:24;101354.38;;;13.42;68.84
23433;BME280;41331;45.412;10.992;2023-02-04T12:35:52;101354.88;;;13.10;68.64
23433;BME280;41331;45.412;10.992;2023-02-04T12:38:20;101347.03;;;13.26;69.07
23433;BME280;41331;45.412;10.992;2023-02-04T12:40:51;101358.09;;;13.29;69.91
23433;BME280;41331;45.412;10.992;2023-02-04T12:43:18;101345.38;;;13.51;70.07
23433;BME280;41331;45.412;10.992;2023-02-04T12:45:46;101339.41;;;13.48;68.88
23433;BME280;41331;45.412;10.992;2023-02-04T12:48:16;101341.22;;;13.01;70.73
23433;BME280;41331;45.412;10.992;2023-02-04T12:50:43;101355.69;;;13.10;71.30
23433;BME280;41331;45.412;10.992;2023-02-04T12:53:11;101349.41;;;13.10;71.76
23433;BME280;41331;45.412;10.992;2023-02-04T12:55:39;101337.69;;;13.01;70.40
23433;BME280;41331;45.412;10.992;2023-02-04T12:58:07;101335.59;;;12.98;70.19
23433;BME280;41331;45.412;10.992;2023-02-04T13:00:34;101337.69;;;13.01;68.94
23433;BME280;41331;45.412;10.992;2023-02-04T13:03:02;101325.81;;;13.05;69.31
23433;BME280;41331;45.412;10.992;2023-02-04T13:05:30;101336.88;;;13.17;70.91
23433;BME280;41331;45.412;10.992;2023-02-04T13:08:01;101335.41;;;13.20;70.07
23433;BME280;41331;45.412;10.992;2023-02-04T13:10:28;101322.53;;;13.38;68.54